sensor_id;sensor_type;location;lat;lon;timestamp;P1;durP1;ratioP1;P2;durP2;ratioP2
16314;SDS011;8266;52.150;4.768;2024-01-30T00:00:30;15.52;;;11.43;;
16314;SDS011;8266;52.150;4.768;2024-01-30T00:02:58;14.15;;;11.55;;
16314;SDS011;8266;52.150;4.768;2024-01-30T00:05:25;11.63;;;10.40;;
16314;SDS011;8266;52.150;4.768;2024-01-30T00:07:52;11.98;;;10.52;;
16314;SDS011;8266;52.150;4.768;2024-01-30T00:10:19;12.27;;;10.88;;
16314;SDS011;8266;52.150;4.768;2024-01-30T00:12:46;12.63;;;10.55;;
16314;SDS011;8266;52.150;4.768;2024-01-30T00:15:14;12.80;;;10.77;;
16314;SDS011;8266;52.150;4.768;2024-01-30T00:17:41;13.23;;;11.50;;
16314;SDS011;8266;52.150;4.768;2024-01-30T00:20:10;12.02;;;10.65;;
16314;SDS011;8266;52.150;4.768;2024-01-30T00:22:37;12.27;;;10.65;;
16314;SDS011;8266;52.150;4.768;2024-01-30T00:25:04;11.75;;;10.55;;
16314;SDS011;8266;52.150;4.768;2024-01-30T00:27:31;13.85;;;11.55;;
16314;SDS011;8266;52.150;4.768;2024-01-30T00:29:58;13.02;;;10.82;;
16314;SDS011;8266;52.150;4.768;2024-01-30T00:32:25;13.30;;;11.13;;
16314;SDS011;8266;52.150;4.768;2024-01-30T00:34:52;12.27;;;10.50;;
16314;SDS011;8266;52.150;4.768;2024-01-30T00:37:24;12.85;;;10.55;;
16314;SDS011;8266;52.150;4.768;2024-01-30T00:39:51;11.75;;;10.30;;
16314;SDS011;8266;52.150;4.768;2024-01-30T00:42:18;12.23;;;10.05;;
16314;SDS011;8266;52.150;4.768;2024-01-30T00:44:46;11.48;;;10.27;;
16314;SDS011;8266;52.150;4.768;2024-01-30T00:47:13;12.25;;;9.70;;
16314;SDS011;8266;52.150;4.768;2024-01-30T00:49:40;13.35;;;10.45;;
16314;SDS011;8266;52.150;4.768;2024-01-30T00:52:07;11.88;;;9.43;;
16314;SDS011;8266;52.150;4.768;2024-01-30T00:54:36;22.50;;;9.90;;
16314;SDS011;8266;52.150;4.768;2024-01-30T00:57:03;12.30;;;9.57;;
16314;SDS011;8266;52.150;4.768;2024-01-30T00:59:30;10.52;;;9.48;;
16314;SDS011;8266;52.150;4.768;2024-01-30T01:01:57;10.05;;;9.05;;
16314;SDS011;8266;52.150;4.768;2024-01-30T01:04:24;11.75;;;9.63;;
16314;SDS011;8266;52.150;4.768;2024-01-30T01:06:51;12.98;;;9.70;;
16314;SDS011;8266;52.150;4.768;2024-01-30T01:09:18;14.60;;;9.63;;
16314;SDS011;8266;52.150;4.768;2024-01-30T01:11:47;11.77;;;9.25;;
16314;SDS011;8266;52.150;4.768;2024-01-30T01:14:14;10.93;;;9.82;;
16314;SDS011;8266;52.150;4.768;2024-01-30T01:16:41;11.07;;;9.07;;
16314;SDS011;8266;52.150;4.768;2024-01-30T01:19:08;10.60;;;8.02;;
16314;SDS011;8266;52.150;4.768;2024-01-30T01:21:35;12.07;;;9.25;;
16314;SDS011;8266;52.150;4.768;2024-01-30T01:24:02;10.82;;;9.07;;
16314;SDS011;8266;52.150;4.768;2024-01-30T01:26:30;12.07;;;9.80;;
16314;SDS011;8266;52.150;4.768;2024-01-30T01:28:58;10.80;;;9.30;;
16314;SDS011;8266;52.150;4.768;2024-01-30T01:31:25;10.35;;;8.43;;
16314;SDS011;8266;52.150;4.768;2024-01-30T01:33:54;10.40;;;8.90;;
16314;SDS011;8266;52.150;4.768;2024-01-30T01:36:21;10.68;;;8.95;;
16314;SDS011;8266;52.150;4.768;2024-01-30T01:38:49;9.88;;;8.88;;
16314;SDS011;8266;52.150;4.768;2024-01-30T01:41:16;11.52;;;8.50;;
16314;SDS011;8266;52.150;4.768;2024-01-30T01:43:43;11.13;;;8.70;;
16314;SDS011;8266;52.150;4.768;2024-01-30T01:46:12;9.65;;;8.70;;
16314;SDS011;8266;52.150;4.768;2024-01-30T01:48:39;11.52;;;8.93;;
16314;SDS011;8266;52.150;4.768;2024-01-30T01:51:07;12.18;;;9.02;;
16314;SDS011;8266;52.150;4.768;2024-01-30T01:53:35;10.82;;;9.48;;
16314;SDS011;8266;52.150;4.768;2024-01-30T01:56:03;10.75;;;9.55;;
16314;SDS011;8266;52.150;4.768;2024-01-30T01:58:31;10.57;;;9.48;;
16314;SDS011;8266;52.150;4.768;2024-01-30T02:00:58;9.75;;;8.75;;
16314;SDS011;8266;52.150;4.768;2024-01-30T02:03:27;9.98;;;8.70;;
16314;SDS011;8266;52.150;4.768;2024-01-30T02:05:55;9.73;;;8.73;;
16314;SDS011;8266;52.150;4.768;2024-01-30T02:08:23;10.38;;;9.13;;
16314;SDS011;8266;52.150;4.768;2024-01-30T02:10:50;9.25;;;8.38;;
16314;SDS011;8266;52.150;4.768;2024-01-30T02:13:18;11.93;;;9.45;;
16314;SDS011;8266;52.150;4.768;2024-01-30T02:15:48;11.18;;;8.57;;
16314;SDS011;8266;52.150;4.768;2024-01-30T02:18:16;11.93;;;9.15;;
16314;SDS011;8266;52.150;4.768;2024-01-30T02:20:46;11.05;;;9.43;;
16314;SDS011;8266;52.150;4.768;2024-01-30T02:23:15;11.10;;;8.93;;
16314;SDS011;8266;52.150;4.768;2024-01-30T02:25:43;11.90;;;9.50;;
16314;SDS011;8266;52.150;4.768;2024-01-30T02:28:10;11.50;;;8.73;;
16314;SDS011;8266;52.150;4.768;2024-01-30T02:30:38;8.77;;;7.88;;
16314;SDS011;8266;52.150;4.768;2024-01-30T02:33:06;13.40;;;9.63;;
16314;SDS011;8266;52.150;4.768;2024-01-30T02:35:33;12.25;;;9.30;;
16314;SDS011;8266;52.150;4.768;2024-01-30T02:38:00;11.05;;;9.15;;
16314;SDS011;8266;52.150;4.768;2024-01-30T02:40:29;10.80;;;8.63;;
16314;SDS011;8266;52.150;4.768;2024-01-30T02:42:56;9.40;;;8.40;;
16314;SDS011;8266;52.150;4.768;2024-01-30T02:45:24;9.52;;;8.52;;
16314;SDS011;8266;52.150;4.768;2024-01-30T02:47:52;10.77;;;9.27;;
16314;SDS011;8266;52.150;4.768;2024-01-30T02:50:19;9.57;;;8.57;;
16314;SDS011;8266;52.150;4.768;2024-01-30T02:52:46;11.20;;;8.40;;
16314;SDS011;8266;52.150;4.768;2024-01-30T02:55:13;10.90;;;8.93;;
16314;SDS011;8266;52.150;4.768;2024-01-30T02:57:44;11.93;;;9.02;;
16314;SDS011;8266;52.150;4.768;2024-01-30T03:00:11;9.45;;;8.45;;
16314;SDS011;8266;52.150;4.768;2024-01-30T03:02:39;10.80;;;8.65;;
16314;SDS011;8266;52.150;4.768;2024-01-30T03:05:08;9.38;;;8.50;;
16314;SDS011;8266;52.150;4.768;2024-01-30T03:07:35;11.23;;;9.35;;
16314;SDS011;8266;52.150;4.768;2024-01-30T03:10:02;11.48;;;9.15;;
16314;SDS011;8266;52.150;4.768;2024-01-30T03:12:31;11.65;;;8.98;;
16314;SDS011;8266;52.150;4.768;2024-01-30T03:14:59;11.32;;;9.02;;
16314;SDS011;8266;52.150;4.768;2024-01-30T03:17:26;9.98;;;8.85;;
16314;SDS011;8266;52.150;4.768;2024-01-30T03:19:53;11.73;;;9.05;;
16314;SDS011;8266;52.150;4.768;2024-01-30T03:22:20;11.23;;;9.32;;
16314;SDS011;8266;52.150;4.768;2024-01-30T03:24:47;9.35;;;8.40;;
16314;SDS011;8266;52.150;4.768;2024-01-30T03:27:14;10.32;;;9.23;;
16314;SDS011;8266;52.150;4.768;2024-01-30T03:29:41;12.18;;;8.52;;
16314;SDS011;8266;52.150;4.768;2024-01-30T03:32:11;10.75;;;9.50;;
16314;SDS011;8266;52.150;4.768;2024-01-30T03:34:38;10.35;;;9.20;;
16314;SDS011;8266;52.150;4.768;2024-01-30T03:37:05;11.05;;;8.57;;
16314;SDS011;8266;52.150;4.768;2024-01-30T03:39:32;9.38;;;8.48;;
16314;SDS011;8266;52.150;4.768;2024-01-30T03:41:59;8.93;;;8.02;;
16314;SDS011;8266;52.150;4.768;2024-01-30T03:44:26;9.30;;;8.30;;
16314;SDS011;8266;52.150;4.768;2024-01-30T03:46:53;10.50;;;8.65;;
16314;SDS011;8266;52.150;4.768;2024-01-30T03:49:23;10.20;;;9.07;;
16314;SDS011;8266;52.150;4.768;2024-01-30T03:51:50;9.25;;;8.07;;
16314;SDS011;8266;52.150;4.768;2024-01-30T03:54:17;12.30;;;8.95;;
16314;SDS011;8266;52.150;4.768;2024-01-30T03:56:44;9.02;;;8.13;;
16314;SDS011;8266;52.150;4.768;2024-01-30T03:59:11;9.68;;;8.65;;
16314;SDS011;8266;52.150;4.768;2024-01-30T04:01:38;10.13;;;8.05;;
16314;SDS011;8266;52.150;4.768;2024-01-30T04:04:06;9.43;;;8.43;;
16314;SDS011;8266;52.150;4.768;2024-01-30T04:06:34;10.95;;;8.05;;
16314;SDS011;8266;52.150;4.768;2024-01-30T04:09:02;10.90;;;8.85;;
16314;SDS011;8266;52.150;4.768;2024-01-30T04:11:30;9.63;;;8.60;;
16314;SDS011;8266;52.150;4.768;2024-01-30T04:13:57;9.18;;;8.25;;
16314;SDS011;8266;52.150;4.768;2024-01-30T04:16:24;10.65;;;9.10;;
16314;SDS011;8266;52.150;4.768;2024-01-30T04:18:51;10.07;;;8.50;;
16314;SDS011;8266;52.150;4.768;2024-01-30T04:21:20;12.43;;;8.52;;
16314;SDS011;8266;52.150;4.768;2024-01-30T04:23:50;9.27;;;8.00;;
16314;SDS011;8266;52.150;4.768;2024-01-30T04:26:17;8.95;;;7.60;;
16314;SDS011;8266;52.150;4.768;2024-01-30T04:28:44;9.50;;;7.63;;
16314;SDS011;8266;52.150;4.768;2024-01-30T04:31:12;10.55;;;7.43;;
16314;SDS011;8266;52.150;4.768;2024-01-30T04:33:39;9.18;;;7.80;;
16314;SDS011;8266;52.150;4.768;2024-01-30T04:36:08;8.75;;;7.63;;
16314;SDS011;8266;52.150;4.768;2024-01-30T04:38:36;7.82;;;7.03;;
16314;SDS011;8266;52.150;4.768;2024-01-30T04:41:05;8.27;;;7.18;;
16314;SDS011;8266;52.150;4.768;2024-01-30T04:43:32;9.50;;;8.52;;
16314;SDS011;8266;52.150;4.768;2024-01-30T04:45:59;9.02;;;7.85;;
16314;SDS011;8266;52.150;4.768;2024-01-30T04:48:26;8.13;;;7.32;;
16314;SDS011;8266;52.150;4.768;2024-01-30T04:50:52;9.88;;;7.78;;
16314;SDS011;8266;52.150;4.768;2024-01-30T04:53:21;9.05;;;8.10;;
16314;SDS011;8266;52.150;4.768;2024-01-30T04:55:48;10.27;;;8.35;;
16314;SDS011;8266;52.150;4.768;2024-01-30T04:58:17;9.30;;;7.55;;
16314;SDS011;8266;52.150;4.768;2024-01-30T05:00:44;8.88;;;7.95;;
16314;SDS011;8266;52.150;4.768;2024-01-30T05:03:16;9.73;;;7.43;;
16314;SDS011;8266;52.150;4.768;2024-01-30T05:05:43;9.40;;;7.57;;
16314;SDS011;8266;52.150;4.768;2024-01-30T05:08:10;10.80;;;8.38;;
16314;SDS011;8266;52.150;4.768;2024-01-30T05:10:37;8.65;;;7.72;;
16314;SDS011;8266;52.150;4.768;2024-01-30T05:13:04;8.38;;;7.57;;
16314;SDS011;8266;52.150;4.768;2024-01-30T05:15:33;8.65;;;7.78;;
16314;SDS011;8266;52.150;4.768;2024-01-30T05:18:00;10.07;;;7.85;;
16314;SDS011;8266;52.150;4.768;2024-01-30T05:20:27;8.32;;;7.43;;
16314;SDS011;8266;52.150;4.768;2024-01-30T05:22:54;9.95;;;8.20;;
16314;SDS011;8266;52.150;4.768;2024-01-30T05:25:21;9.02;;;8.02;;
16314;SDS011;8266;52.150;4.768;2024-01-30T05:27:48;8.25;;;7.45;;
16314;SDS011;8266;52.150;4.768;2024-01-30T05:30:15;9.82;;;7.80;;
16314;SDS011;8266;52.150;4.768;2024-01-30T05:32:44;10.18;;;8.05;;
16314;SDS011;8266;52.150;4.768;2024-01-30T05:35:11;8.45;;;7.65;;
16314;SDS011;8266;52.150;4.768;2024-01-30T05:37:38;8.40;;;7.45;;
16314;SDS011;8266;52.150;4.768;2024-01-30T05:40:06;10.23;;;8.70;;
16314;SDS011;8266;52.150;4.768;2024-01-30T05:42:37;11.15;;;8.43;;
16314;SDS011;8266;52.150;4.768;2024-01-30T05:45:04;7.63;;;6.93;;
16314;SDS011;8266;52.150;4.768;2024-01-30T05:47:33;8.93;;;8.02;;
16314;SDS011;8266;52.150;4.768;2024-01-30T05:50:01;10.18;;;8.43;;
16314;SDS011;8266;52.150;4.768;2024-01-30T05:52:29;9.48;;;7.60;;
16314;SDS011;8266;52.150;4.768;2024-01-30T05:54:56;8.50;;;7.65;;
16314;SDS011;8266;52.150;4.768;2024-01-30T05:57:23;8.98;;;7.60;;
16314;SDS011;8266;52.150;4.768;2024-01-30T05:59:50;8.73;;;7.40;;
16314;SDS011;8266;52.150;4.768;2024-01-30T06:02:17;8.30;;;7.35;;
16314;SDS011;8266;52.150;4.768;2024-01-30T06:04:44;8.48;;;7.63;;
16314;SDS011;8266;52.150;4.768;2024-01-30T06:07:13;8.70;;;6.97;;
16314;SDS011;8266;52.150;4.768;2024-01-30T06:09:40;8.50;;;7.68;;
16314;SDS011;8266;52.150;4.768;2024-01-30T06:12:07;10.05;;;7.97;;
16314;SDS011;8266;52.150;4.768;2024-01-30T06:14:36;8.48;;;7.68;;
16314;SDS011;8266;52.150;4.768;2024-01-30T06:17:04;9.57;;;7.32;;
16314;SDS011;8266;52.150;4.768;2024-01-30T06:19:31;9.20;;;7.55;;
16314;SDS011;8266;52.150;4.768;2024-01-30T06:21:58;9.38;;;8.13;;
16314;SDS011;8266;52.150;4.768;2024-01-30T06:24:26;10.75;;;8.52;;
16314;SDS011;8266;52.150;4.768;2024-01-30T06:26:54;8.18;;;7.35;;
16314;SDS011;8266;52.150;4.768;2024-01-30T06:29:20;9.20;;;7.93;;
16314;SDS011;8266;52.150;4.768;2024-01-30T06:31:49;8.73;;;7.78;;
16314;SDS011;8266;52.150;4.768;2024-01-30T06:34:17;9.35;;;7.53;;
16314;SDS011;8266;52.150;4.768;2024-01-30T06:36:44;9.43;;;7.97;;
16314;SDS011;8266;52.150;4.768;2024-01-30T06:39:11;9.88;;;8.05;;
16314;SDS011;8266;52.150;4.768;2024-01-30T06:41:39;9.18;;;7.22;;
16314;SDS011;8266;52.150;4.768;2024-01-30T06:44:06;9.88;;;7.97;;
16314;SDS011;8266;52.150;4.768;2024-01-30T06:46:33;11.57;;;8.13;;
16314;SDS011;8266;52.150;4.768;2024-01-30T06:49:01;10.18;;;8.45;;
16314;SDS011;8266;52.150;4.768;2024-01-30T06:51:28;9.65;;;8.07;;
16314;SDS011;8266;52.150;4.768;2024-01-30T06:53:55;8.98;;;8.07;;
16314;SDS011;8266;52.150;4.768;2024-01-30T06:56:22;9.35;;;7.70;;
16314;SDS011;8266;52.150;4.768;2024-01-30T06:58:50;8.60;;;7.68;;
16314;SDS011;8266;52.150;4.768;2024-01-30T07:01:18;8.80;;;7.90;;
16314;SDS011;8266;52.150;4.768;2024-01-30T07:03:46;8.90;;;7.35;;
16314;SDS011;8266;52.150;4.768;2024-01-30T07:06:13;8.85;;;7.93;;
16314;SDS011;8266;52.150;4.768;2024-01-30T07:08:40;8.45;;;7.28;;
16314;SDS011;8266;52.150;4.768;2024-01-30T07:11:07;9.65;;;7.70;;
16314;SDS011;8266;52.150;4.768;2024-01-30T07:13:34;7.75;;;6.95;;
16314;SDS011;8266;52.150;4.768;2024-01-30T07:16:03;8.35;;;7.45;;
16314;SDS011;8266;52.150;4.768;2024-01-30T07:18:30;7.50;;;6.75;;
16314;SDS011;8266;52.150;4.768;2024-01-30T07:20:57;9.27;;;6.80;;
16314;SDS011;8266;52.150;4.768;2024-01-30T07:23:25;10.98;;;7.25;;
16314;SDS011;8266;52.150;4.768;2024-01-30T07:25:52;9.10;;;7.22;;
16314;SDS011;8266;52.150;4.768;2024-01-30T07:28:19;9.05;;;7.25;;
16314;SDS011;8266;52.150;4.768;2024-01-30T07:30:47;9.40;;;7.65;;
16314;SDS011;8266;52.150;4.768;2024-01-30T07:33:17;9.20;;;7.00;;
16314;SDS011;8266;52.150;4.768;2024-01-30T07:35:44;8.85;;;7.30;;
16314;SDS011;8266;52.150;4.768;2024-01-30T07:38:12;10.52;;;7.07;;
16314;SDS011;8266;52.150;4.768;2024-01-30T07:40:39;10.63;;;7.45;;
16314;SDS011;8266;52.150;4.768;2024-01-30T07:43:06;8.50;;;6.80;;
16314;SDS011;8266;52.150;4.768;2024-01-30T07:45:33;8.68;;;7.25;;
16314;SDS011;8266;52.150;4.768;2024-01-30T07:48:00;10.25;;;7.78;;
16314;SDS011;8266;52.150;4.768;2024-01-30T07:50:28;10.30;;;7.55;;
16314;SDS011;8266;52.150;4.768;2024-01-30T07:52:56;9.98;;;7.65;;
16314;SDS011;8266;52.150;4.768;2024-01-30T07:55:23;9.00;;;7.18;;
16314;SDS011;8266;52.150;4.768;2024-01-30T07:57:52;10.20;;;6.72;;
16314;SDS011;8266;52.150;4.768;2024-01-30T08:00:20;11.07;;;7.20;;
16314;SDS011;8266;52.150;4.768;2024-01-30T08:02:47;9.00;;;6.90;;
16314;SDS011;8266;52.150;4.768;2024-01-30T08:05:14;10.20;;;7.10;;
16314;SDS011;8266;52.150;4.768;2024-01-30T08:07:43;10.20;;;7.40;;
16314;SDS011;8266;52.150;4.768;2024-01-30T08:10:11;8.77;;;6.63;;
16314;SDS011;8266;52.150;4.768;2024-01-30T08:12:38;8.35;;;6.60;;
16314;SDS011;8266;52.150;4.768;2024-01-30T08:15:06;12.85;;;6.93;;
16314;SDS011;8266;52.150;4.768;2024-01-30T08:17:33;9.65;;;7.75;;
16314;SDS011;8266;52.150;4.768;2024-01-30T08:20:00;9.27;;;6.85;;
16314;SDS011;8266;52.150;4.768;2024-01-30T08:22:29;11.80;;;7.10;;
16314;SDS011;8266;52.150;4.768;2024-01-30T08:24:58;9.75;;;6.93;;
16314;SDS011;8266;52.150;4.768;2024-01-30T08:27:24;10.45;;;7.00;;
16314;SDS011;8266;52.150;4.768;2024-01-30T08:29:51;13.40;;;6.78;;
16314;SDS011;8266;52.150;4.768;2024-01-30T08:32:18;8.85;;;6.50;;
16314;SDS011;8266;52.150;4.768;2024-01-30T08:34:46;9.73;;;7.15;;
16314;SDS011;8266;52.150;4.768;2024-01-30T08:37:12;9.02;;;6.85;;
16314;SDS011;8266;52.150;4.768;2024-01-30T08:39:41;9.38;;;6.65;;
16314;SDS011;8266;52.150;4.768;2024-01-30T08:42:10;14.25;;;6.68;;
16314;SDS011;8266;52.150;4.768;2024-01-30T08:44:37;10.40;;;6.68;;
16314;SDS011;8266;52.150;4.768;2024-01-30T08:47:04;8.27;;;6.95;;
16314;SDS011;8266;52.150;4.768;2024-01-30T08:49:32;10.18;;;6.82;;
16314;SDS011;8266;52.150;4.768;2024-01-30T08:51:59;10.98;;;6.78;;
16314;SDS011;8266;52.150;4.768;2024-01-30T08:54:26;8.20;;;7.22;;
16314;SDS011;8266;52.150;4.768;2024-01-30T08:56:53;9.32;;;7.20;;
16314;SDS011;8266;52.150;4.768;2024-01-30T08:59:23;10.48;;;7.30;;
16314;SDS011;8266;52.150;4.768;2024-01-30T09:01:49;10.98;;;7.50;;
16314;SDS011;8266;52.150;4.768;2024-01-30T09:04:18;8.80;;;7.00;;
16314;SDS011;8266;52.150;4.768;2024-01-30T09:06:45;13.07;;;7.63;;
16314;SDS011;8266;52.150;4.768;2024-01-30T09:09:14;9.65;;;7.85;;
16314;SDS011;8266;52.150;4.768;2024-01-30T09:11:41;9.40;;;7.15;;
16314;SDS011;8266;52.150;4.768;2024-01-30T09:14:08;11.25;;;7.10;;
16314;SDS011;8266;52.150;4.768;2024-01-30T09:16:37;10.43;;;6.82;;
16314;SDS011;8266;52.150;4.768;2024-01-30T09:19:04;12.55;;;7.35;;
16314;SDS011;8266;52.150;4.768;2024-01-30T09:21:31;8.35;;;7.00;;
16314;SDS011;8266;52.150;4.768;2024-01-30T09:24:01;8.35;;;6.95;;
16314;SDS011;8266;52.150;4.768;2024-01-30T09:26:29;8.80;;;6.85;;
16314;SDS011;8266;52.150;4.768;2024-01-30T09:28:56;7.70;;;5.75;;
16314;SDS011;8266;52.150;4.768;2024-01-30T09:31:23;9.43;;;6.22;;
16314;SDS011;8266;52.150;4.768;2024-01-30T09:33:51;14.70;;;7.03;;
16314;SDS011;8266;52.150;4.768;2024-01-30T09:36:20;9.55;;;6.70;;
16314;SDS011;8266;52.150;4.768;2024-01-30T09:38:47;6.63;;;5.93;;
16314;SDS011;8266;52.150;4.768;2024-01-30T09:41:14;5.07;;;4.55;;
16314;SDS011;8266;52.150;4.768;2024-01-30T09:43:43;8.88;;;5.00;;
16314;SDS011;8266;52.150;4.768;2024-01-30T09:46:14;9.10;;;4.90;;
16314;SDS011;8266;52.150;4.768;2024-01-30T09:48:44;7.57;;;4.53;;
16314;SDS011;8266;52.150;4.768;2024-01-30T09:51:14;6.28;;;4.05;;
16314;SDS011;8266;52.150;4.768;2024-01-30T09:53:42;8.02;;;4.45;;
16314;SDS011;8266;52.150;4.768;2024-01-30T09:56:10;6.25;;;3.97;;
16314;SDS011;8266;52.150;4.768;2024-01-30T09:58:38;6.43;;;4.22;;
16314;SDS011;8266;52.150;4.768;2024-01-30T10:01:06;8.13;;;4.38;;
16314;SDS011;8266;52.150;4.768;2024-01-30T10:03:33;7.10;;;4.13;;
16314;SDS011;8266;52.150;4.768;2024-01-30T10:06:00;5.35;;;4.10;;
16314;SDS011;8266;52.150;4.768;2024-01-30T10:08:29;5.65;;;3.58;;
16314;SDS011;8266;52.150;4.768;2024-01-30T10:10:56;8.55;;;3.47;;
16314;SDS011;8266;52.150;4.768;2024-01-30T10:13:23;5.82;;;3.15;;
16314;SDS011;8266;52.150;4.768;2024-01-30T10:15:52;6.68;;;2.78;;
16314;SDS011;8266;52.150;4.768;2024-01-30T10:18:20;7.95;;;2.70;;
16314;SDS011;8266;52.150;4.768;2024-01-30T10:20:49;8.07;;;2.67;;
16314;SDS011;8266;52.150;4.768;2024-01-30T10:23:16;8.40;;;2.80;;
16314;SDS011;8266;52.150;4.768;2024-01-30T10:25:45;8.30;;;2.60;;
16314;SDS011;8266;52.150;4.768;2024-01-30T10:28:13;7.50;;;2.13;;
16314;SDS011;8266;52.150;4.768;2024-01-30T10:30:40;7.20;;;2.25;;
16314;SDS011;8266;52.150;4.768;2024-01-30T10:33:07;5.00;;;1.90;;
16314;SDS011;8266;52.150;4.768;2024-01-30T10:35:34;4.90;;;1.90;;
16314;SDS011;8266;52.150;4.768;2024-01-30T10:38:01;4.40;;;2.30;;
16314;SDS011;8266;52.150;4.768;2024-01-30T10:40:29;5.93;;;1.73;;
16314;SDS011;8266;52.150;4.768;2024-01-30T10:43:00;4.15;;;1.58;;
16314;SDS011;8266;52.150;4.768;2024-01-30T10:45:29;3.65;;;1.42;;
16314;SDS011;8266;52.150;4.768;2024-01-30T10:47:58;3.45;;;1.60;;
16314;SDS011;8266;52.150;4.768;2024-01-30T10:50:26;4.18;;;1.40;;
16314;SDS011;8266;52.150;4.768;2024-01-30T10:52:53;3.22;;;1.23;;
16314;SDS011;8266;52.150;4.768;2024-01-30T10:55:22;4.63;;;1.52;;
16314;SDS011;8266;52.150;4.768;2024-01-30T10:57:49;3.40;;;1.75;;
16314;SDS011;8266;52.150;4.768;2024-01-30T11:00:18;5.10;;;1.50;;
16314;SDS011;8266;52.150;4.768;2024-01-30T11:02:49;4.18;;;1.65;;
16314;SDS011;8266;52.150;4.768;2024-01-30T11:05:23;3.08;;;1.10;;
16314;SDS011;8266;52.150;4.768;2024-01-30T11:07:51;2.40;;;1.40;;
16314;SDS011;8266;52.150;4.768;2024-01-30T11:10:18;5.78;;;1.23;;
16314;SDS011;8266;52.150;4.768;2024-01-30T11:12:45;3.30;;;1.25;;
16314;SDS011;8266;52.150;4.768;2024-01-30T11:15:13;4.15;;;1.55;;
16314;SDS011;8266;52.150;4.768;2024-01-30T11:17:43;1.75;;;0.90;;
16314;SDS011;8266;52.150;4.768;2024-01-30T11:20:11;4.57;;;1.38;;
16314;SDS011;8266;52.150;4.768;2024-01-30T11:22:41;3.72;;;1.20;;
16314;SDS011;8266;52.150;4.768;2024-01-30T11:25:13;2.78;;;1.02;;
16314;SDS011;8266;52.150;4.768;2024-01-30T11:27:41;2.83;;;1.10;;
16314;SDS011;8266;52.150;4.768;2024-01-30T11:30:09;5.72;;;1.33;;
16314;SDS011;8266;52.150;4.768;2024-01-30T11:32:37;4.25;;;1.40;;
16314;SDS011;8266;52.150;4.768;2024-01-30T11:35:05;4.07;;;1.40;;
16314;SDS011;8266;52.150;4.768;2024-01-30T11:37:36;3.80;;;0.98;;
16314;SDS011;8266;52.150;4.768;2024-01-30T11:40:05;5.40;;;1.40;;
16314;SDS011;8266;52.150;4.768;2024-01-30T11:42:33;3.92;;;1.20;;
16314;SDS011;8266;52.150;4.768;2024-01-30T11:45:05;3.47;;;1.42;;
16314;SDS011;8266;52.150;4.768;2024-01-30T11:47:34;5.00;;;1.27;;
16314;SDS011;8266;52.150;4.768;2024-01-30T11:50:02;3.75;;;0.98;;
16314;SDS011;8266;52.150;4.768;2024-01-30T11:52:33;4.47;;;1.33;;
16314;SDS011;8266;52.150;4.768;2024-01-30T11:55:00;3.10;;;0.95;;
16314;SDS011;8266;52.150;4.768;2024-01-30T11:57:27;6.35;;;1.00;;
16314;SDS011;8266;52.150;4.768;2024-01-30T11:59:55;3.55;;;0.90;;
16314;SDS011;8266;52.150;4.768;2024-01-30T12:02:22;7.10;;;1.20;;
16314;SDS011;8266;52.150;4.768;2024-01-30T12:04:49;10.77;;;1.45;;
16314;SDS011;8266;52.150;4.768;2024-01-30T12:07:17;6.90;;;0.95;;
16314;SDS011;8266;52.150;4.768;2024-01-30T12:09:53;4.57;;;1.13;;
16314;SDS011;8266;52.150;4.768;2024-01-30T12:12:21;3.45;;;1.13;;
16314;SDS011;8266;52.150;4.768;2024-01-30T12:14:49;4.05;;;1.02;;
16314;SDS011;8266;52.150;4.768;2024-01-30T12:17:23;3.75;;;1.40;;
16314;SDS011;8266;52.150;4.768;2024-01-30T12:19:51;3.00;;;1.02;;
16314;SDS011;8266;52.150;4.768;2024-01-30T12:22:28;4.93;;;1.48;;
16314;SDS011;8266;52.150;4.768;2024-01-30T12:24:56;6.70;;;1.17;;
16314;SDS011;8266;52.150;4.768;2024-01-30T12:27:24;8.80;;;1.30;;
16314;SDS011;8266;52.150;4.768;2024-01-30T12:29:55;4.25;;;1.17;;
16314;SDS011;8266;52.150;4.768;2024-01-30T12:32:23;3.33;;;0.95;;
16314;SDS011;8266;52.150;4.768;2024-01-30T12:34:50;6.55;;;1.05;;
16314;SDS011;8266;52.150;4.768;2024-01-30T12:37:21;4.63;;;1.08;;
16314;SDS011;8266;52.150;4.768;2024-01-30T12:39:49;4.80;;;1.20;;
16314;SDS011;8266;52.150;4.768;2024-01-30T12:42:20;6.80;;;1.27;;
16314;SDS011;8266;52.150;4.768;2024-01-30T12:44:47;5.25;;;1.10;;
16314;SDS011;8266;52.150;4.768;2024-01-30T12:47:15;7.75;;;1.38;;
16314;SDS011;8266;52.150;4.768;2024-01-30T12:49:42;3.13;;;1.05;;
16314;SDS011;8266;52.150;4.768;2024-01-30T12:52:10;3.70;;;1.20;;
16314;SDS011;8266;52.150;4.768;2024-01-30T12:54:37;5.40;;;1.30;;
16314;SDS011;8266;52.150;4.768;2024-01-30T12:57:04;5.55;;;1.30;;
16314;SDS011;8266;52.150;4.768;2024-01-30T12:59:33;3.83;;;1.10;;
16314;SDS011;8266;52.150;4.768;2024-01-30T13:02:00;5.72;;;1.30;;
16314;SDS011;8266;52.150;4.768;2024-01-30T13:04:28;5.57;;;1.50;;
16314;SDS011;8266;52.150;4.768;2024-01-30T13:06:55;5.85;;;1.05;;
16314;SDS011;8266;52.150;4.768;2024-01-30T13:09:23;4.80;;;1.50;;
16314;SDS011;8266;52.150;4.768;2024-01-30T13:11:50;5.60;;;1.48;;
16314;SDS011;8266;52.150;4.768;2024-01-30T13:14:17;8.55;;;1.20;;
16314;SDS011;8266;52.150;4.768;2024-01-30T13:16:47;3.45;;;1.70;;
16314;SDS011;8266;52.150;4.768;2024-01-30T13:19:14;5.63;;;1.42;;
16314;SDS011;8266;52.150;4.768;2024-01-30T13:21:41;4.22;;;1.27;;
16314;SDS011;8266;52.150;4.768;2024-01-30T13:24:08;3.40;;;1.35;;
16314;SDS011;8266;52.150;4.768;2024-01-30T13:26:35;5.30;;;1.30;;
16314;SDS011;8266;52.150;4.768;2024-01-30T13:29:03;4.10;;;1.17;;
16314;SDS011;8266;52.150;4.768;2024-01-30T13:31:30;6.05;;;1.58;;
16314;SDS011;8266;52.150;4.768;2024-01-30T13:33:58;3.38;;;1.23;;
16314;SDS011;8266;52.150;4.768;2024-01-30T13:36:25;3.47;;;1.00;;
16314;SDS011;8266;52.150;4.768;2024-01-30T13:38:53;2.92;;;0.90;;
16314;SDS011;8266;52.150;4.768;2024-01-30T13:41:20;2.85;;;0.93;;
16314;SDS011;8266;52.150;4.768;2024-01-30T13:43:48;2.85;;;1.30;;
16314;SDS011;8266;52.150;4.768;2024-01-30T13:46:15;3.40;;;1.00;;
16314;SDS011;8266;52.150;4.768;2024-01-30T13:48:42;2.90;;;1.27;;
16314;SDS011;8266;52.150;4.768;2024-01-30T13:51:10;1.10;;;0.80;;
16314;SDS011;8266;52.150;4.768;2024-01-30T13:53:38;1.08;;;0.80;;
16314;SDS011;8266;52.150;4.768;2024-01-30T13:56:05;2.05;;;1.10;;
16314;SDS011;8266;52.150;4.768;2024-01-30T13:58:32;4.30;;;1.10;;
16314;SDS011;8266;52.150;4.768;2024-01-30T14:01:01;2.40;;;0.98;;
16314;SDS011;8266;52.150;4.768;2024-01-30T14:03:28;1.83;;;0.70;;
16314;SDS011;8266;52.150;4.768;2024-01-30T14:05:55;1.52;;;1.05;;
16314;SDS011;8266;52.150;4.768;2024-01-30T14:08:24;2.50;;;1.40;;
16314;SDS011;8266;52.150;4.768;2024-01-30T14:10:53;1.73;;;1.10;;
16314;SDS011;8266;52.150;4.768;2024-01-30T14:13:21;2.83;;;1.20;;
16314;SDS011;8266;52.150;4.768;2024-01-30T14:15:50;2.30;;;1.40;;
16314;SDS011;8266;52.150;4.768;2024-01-30T14:18:18;1.65;;;1.40;;
16314;SDS011;8266;52.150;4.768;2024-01-30T14:20:45;2.25;;;1.77;;
16314;SDS011;8266;52.150;4.768;2024-01-30T14:23:12;3.80;;;2.42;;
16314;SDS011;8266;52.150;4.768;2024-01-30T14:25:41;4.35;;;2.75;;
16314;SDS011;8266;52.150;4.768;2024-01-30T14:28:08;3.63;;;2.90;;
16314;SDS011;8266;52.150;4.768;2024-01-30T14:30:35;4.03;;;3.13;;
16314;SDS011;8266;52.150;4.768;2024-01-30T14:33:02;5.68;;;3.55;;
16314;SDS011;8266;52.150;4.768;2024-01-30T14:35:30;5.88;;;3.35;;
16314;SDS011;8266;52.150;4.768;2024-01-30T14:37:57;5.05;;;3.70;;
16314;SDS011;8266;52.150;4.768;2024-01-30T14:40:24;4.25;;;3.53;;
16314;SDS011;8266;52.150;4.768;2024-01-30T14:42:53;3.33;;;3.03;;
16314;SDS011;8266;52.150;4.768;2024-01-30T14:45:20;4.22;;;2.60;;
16314;SDS011;8266;52.150;4.768;2024-01-30T14:47:47;4.05;;;2.63;;
16314;SDS011;8266;52.150;4.768;2024-01-30T14:50:15;4.07;;;2.90;;
16314;SDS011;8266;52.150;4.768;2024-01-30T14:52:42;3.38;;;2.33;;
16314;SDS011;8266;52.150;4.768;2024-01-30T14:55:10;3.38;;;2.28;;
16314;SDS011;8266;52.150;4.768;2024-01-30T14:57:37;2.35;;;1.98;;